createdAt,value
2018-08-13T00:04:25.683Z,61.99
2018-08-13T00:09:33.546Z,62.02
2018-08-13T00:14:35.694Z,61.73
2018-08-13T00:19:37.878Z,61.40
2018-08-13T00:24:40.075Z,61.74
2018-08-13T00:29:48.288Z,61.54
2018-08-13T00:34:50.457Z,61.62
2018-08-13T00:39:52.802Z,61.52
2018-08-13T00:44:54.985Z,61.33
2018-08-13T00:49:57.130Z,59.89
2018-08-13T00:54:59.316Z,60.35
2018-08-13T01:00:01.567Z,60.33
2018-08-13T01:05:04.772Z,60.34
2018-08-13T01:10:09.727Z,60.19
2018-08-13T01:15:13.527Z,60.57
2018-08-13T01:20:17.889Z,59.77
2018-08-13T01:25:20.609Z,60.59
2018-08-13T01:30:22.754Z,59.85
2018-08-13T01:35:24.943Z,60.69
2018-08-13T01:40:27.123Z,60.80
2018-08-13T01:45:29.256Z,60.30
2018-08-13T01:50:31.421Z,60.74
2018-08-13T01:55:33.575Z,60.95
2018-08-13T02:00:35.792Z,61.44
2018-08-13T02:05:38.011Z,61.44
2018-08-13T02:10:40.226Z,62.06
2018-08-13T02:15:42.390Z,62.34
2018-08-13T02:20:44.584Z,63.22
2018-08-13T02:25:46.947Z,62.87
2018-08-13T02:30:49.078Z,63.27
2018-08-13T02:35:51.244Z,62.64
2018-08-13T02:40:53.403Z,62.27
2018-08-13T02:45:55.633Z,61.97
2018-08-13T02:50:57.789Z,61.37
2018-08-13T02:56:00.124Z,61.84
2018-08-13T03:01:02.341Z,61.92
2018-08-13T03:06:04.576Z,61.68
2018-08-13T03:11:06.751Z,61.84
2018-08-13T03:16:08.912Z,61.78
2018-08-13T03:21:11.093Z,61.49
2018-08-13T03:26:13.238Z,62.35
2018-08-13T03:31:15.473Z,62.72
2018-08-13T03:36:17.664Z,62.82
2018-08-13T03:41:19.848Z,62.74
2018-08-13T03:46:22.007Z,63.01
2018-08-13T03:51:24.133Z,63.16
2018-08-13T03:56:26.318Z,63.33
2018-08-13T04:01:28.557Z,63.15
2018-08-13T04:06:30.742Z,63.32
2018-08-13T04:11:32.941Z,63.01
2018-08-13T04:16:35.417Z,63.58
2018-08-13T04:21:37.581Z,63.54
2018-08-13T04:26:39.719Z,63.62
2018-08-13T04:31:41.864Z,63.16
2018-08-13T04:36:44.045Z,63.55
2018-08-13T04:41:46.173Z,62.72
2018-08-13T04:46:48.350Z,62.28
2018-08-13T04:51:50.492Z,62.51
2018-08-13T04:56:53.641Z,62.46
2018-08-13T05:01:55.859Z,61.78
2018-08-13T05:06:58.030Z,61.64
2018-08-13T05:12:00.215Z,61.94
2018-08-13T05:17:02.359Z,61.04
2018-08-13T05:22:04.515Z,60.89
2018-08-13T05:27:06.692Z,61.20
2018-08-13T05:32:08.908Z,60.32
2018-08-13T05:37:11.068Z,60.44
2018-08-13T05:42:13.212Z,60.36
2018-08-13T05:47:15.430Z,60.26
2018-08-13T05:52:17.619Z,60.36
2018-08-13T05:57:19.796Z,59.37
2018-08-13T06:02:22.020Z,59.20
2018-08-13T06:07:24.179Z,59.84
2018-08-13T06:12:26.309Z,59.53
2018-08-13T06:17:28.457Z,59.92
2018-08-13T06:22:30.629Z,60.25
2018-08-13T06:27:32.796Z,59.90
2018-08-13T06:32:34.962Z,60.07
2018-08-13T06:37:37.174Z,60.05
2018-08-13T06:42:39.422Z,59.08
2018-08-13T06:47:41.935Z,59.52
2018-08-13T06:52:44.369Z,58.83
2018-08-13T06:57:46.542Z,59.39
2018-08-13T07:02:48.735Z,58.34
2018-08-13T07:07:50.939Z,57.93
2018-08-13T07:12:53.092Z,57.93
2018-08-13T07:17:55.257Z,57.22
2018-08-13T07:22:57.433Z,57.15
2018-08-13T07:27:59.693Z,57.27
2018-08-13T07:33:01.825Z,56.95
2018-08-13T07:38:04.174Z,56.45
2018-08-13T07:43:06.370Z,57.26
2018-08-13T07:48:08.549Z,56.58
2018-08-13T07:53:10.696Z,56.98
2018-08-13T07:58:12.826Z,56.75
2018-08-13T08:03:15.018Z,57.18
2018-08-13T08:08:17.205Z,57.10
2018-08-13T08:13:19.402Z,56.95
2018-08-13T08:18:21.573Z,57.62
2018-08-13T08:23:23.795Z,57.33
2018-08-13T08:28:25.981Z,56.32
2018-08-13T08:33:28.306Z,55.95
2018-08-13T08:38:30.476Z,56.32
2018-08-13T08:43:32.687Z,55.92
2018-08-13T08:48:34.885Z,56.08
2018-08-13T08:53:37.140Z,55.38
2018-08-13T08:58:39.274Z,55.47
2018-08-13T09:03:41.526Z,55.31
2018-08-13T09:08:43.684Z,55.31
2018-08-13T09:13:45.840Z,55.01
2018-08-13T09:18:59.564Z,54.67
2018-08-13T09:24:13.831Z,53.89
2018-08-13T09:29:27.821Z,53.07
2018-08-13T09:34:39.310Z,52.48
2018-08-13T09:39:41.449Z,52.16
2018-08-13T09:44:43.672Z,51.43
2018-08-13T09:49:45.863Z,51.60
2018-08-13T09:54:48.019Z,50.79
2018-08-13T09:59:50.192Z,49.51
2018-08-13T10:04:52.375Z,49.05
2018-08-13T10:09:54.536Z,48.64
2018-08-13T10:14:56.712Z,48.78
2018-08-13T10:19:58.890Z,48.45
2018-08-13T10:30:03.258Z,49.48
2018-08-13T10:35:05.960Z,48.99
2018-08-13T10:40:10.386Z,49.68
2018-08-13T10:45:12.621Z,49.15
2018-08-13T10:50:14.970Z,49.11
2018-08-13T10:55:17.159Z,49.47
2018-08-13T11:00:19.397Z,48.68
2018-08-13T11:05:21.714Z,48.16
2018-08-13T11:10:24.006Z,48.50
2018-08-13T11:15:26.143Z,48.58
2018-08-13T11:20:28.350Z,49.46
2018-08-13T11:25:30.538Z,49.25
2018-08-13T11:30:32.714Z,48.32
2018-08-13T11:35:34.919Z,47.76
2018-08-13T11:40:37.210Z,47.43
2018-08-13T11:45:39.407Z,47.38
2018-08-13T11:50:41.667Z,47.21
2018-08-13T11:55:43.860Z,46.66
2018-08-13T12:00:46.040Z,44.99
2018-08-13T12:05:48.264Z,44.20
2018-08-13T12:10:51.124Z,43.52
2018-08-13T12:15:53.316Z,43.88
2018-08-13T12:20:55.466Z,43.67
2018-08-13T12:25:57.679Z,42.88
2018-08-13T12:30:59.953Z,43.64
2018-08-13T12:36:02.142Z,43.75
2018-08-13T12:41:04.645Z,44.02
2018-08-13T12:46:07.670Z,43.50
2018-08-13T12:51:09.915Z,43.33
2018-08-13T12:56:12.122Z,43.47
2018-08-13T13:01:14.293Z,44.24
2018-08-13T13:06:16.558Z,44.56
2018-08-13T13:11:18.764Z,44.15
2018-08-13T13:16:20.961Z,43.46
2018-08-13T13:21:23.243Z,44.38
2018-08-13T13:26:25.449Z,46.24
2018-08-13T13:31:27.630Z,47.62
2018-08-13T13:36:29.841Z,48.43
2018-08-13T13:41:32.014Z,48.57
2018-08-13T13:46:34.237Z,48.85
2018-08-13T13:51:36.541Z,49.63
2018-08-13T13:56:38.825Z,49.50
2018-08-13T14:01:41.034Z,49.21
2018-08-13T14:06:43.329Z,49.93
2018-08-13T14:11:45.557Z,49.91
2018-08-13T14:16:47.714Z,49.25
2018-08-13T14:21:49.900Z,48.59
2018-08-13T14:26:52.110Z,48.57
2018-08-13T14:31:54.313Z,48.46
2018-08-13T14:36:56.496Z,47.99
2018-08-13T14:41:58.683Z,48.30
2018-08-13T14:47:00.873Z,49.10
2018-08-13T14:52:03.146Z,49.57
2018-08-13T14:57:05.451Z,50.22
2018-08-13T15:02:07.721Z,50.06
2018-08-13T15:07:09.990Z,51.04
2018-08-13T15:12:12.206Z,50.27
2018-08-13T15:17:14.514Z,51.30
2018-08-13T15:22:16.758Z,51.36
2018-08-13T15:27:19.050Z,51.61
2018-08-13T15:32:21.243Z,51.48
2018-08-13T15:37:23.494Z,52.24
2018-08-13T15:42:25.724Z,52.41
2018-08-13T15:47:27.932Z,53.07
2018-08-13T15:57:45.731Z,54.09
2018-08-13T16:02:48.251Z,55.03
2018-08-13T16:07:50.939Z,56.44
2018-08-13T16:12:54.215Z,56.56
2018-08-13T16:17:56.453Z,57.09
2018-08-13T16:22:58.679Z,57.59
2018-08-13T16:28:00.865Z,58.14
2018-08-13T16:33:03.110Z,58.57
2018-08-13T16:38:05.366Z,58.93
2018-08-13T16:43:07.554Z,58.08
2018-08-13T16:48:09.751Z,58.02
2018-08-13T16:53:12.014Z,58.16
2018-08-13T16:58:14.243Z,58.52
2018-08-13T17:03:16.464Z,58.72
2018-08-13T17:08:18.694Z,58.00
2018-08-13T17:13:20.977Z,57.81
2018-08-13T17:18:23.242Z,58.26
2018-08-13T17:23:25.455Z,57.64
2018-08-13T17:28:27.666Z,58.13
2018-08-13T17:33:30.203Z,57.60
2018-08-13T17:38:32.518Z,57.48
2018-08-13T17:43:34.765Z,57.76
2018-08-13T17:48:37.016Z,57.44
2018-08-13T17:53:39.249Z,57.02
2018-08-13T17:58:41.436Z,57.46
2018-08-13T18:03:43.664Z,57.22
2018-08-13T18:08:45.925Z,57.34
2018-08-13T18:13:48.227Z,57.30
2018-08-13T18:18:50.486Z,56.88
2018-08-13T18:23:52.770Z,56.81
2018-08-13T18:28:54.951Z,57.08
2018-08-13T18:33:57.216Z,57.01
2018-08-13T18:38:59.579Z,57.69
2018-08-13T18:44:01.806Z,57.29
2018-08-13T18:49:04.060Z,57.47
2018-08-13T18:54:06.297Z,58.05
2018-08-13T18:59:08.592Z,57.96
2018-08-13T19:04:11.187Z,57.97
2018-08-13T19:09:13.454Z,58.71
2018-08-13T19:14:15.740Z,58.93
2018-08-13T19:19:18.023Z,59.03
2018-08-13T19:24:20.296Z,61.55
2018-08-13T19:29:22.575Z,61.11
2018-08-13T19:34:24.783Z,61.87
2018-08-13T19:39:27.022Z,63.13
2018-08-13T19:44:29.314Z,63.36
2018-08-13T19:49:31.571Z,64.13
2018-08-13T19:54:33.801Z,64.35
2018-08-13T19:59:36.037Z,64.57
2018-08-13T20:04:38.368Z,64.69
2018-08-13T20:09:40.615Z,65.00
2018-08-13T20:14:42.835Z,65.18
2018-08-13T20:19:45.164Z,65.62
2018-08-13T20:24:47.309Z,65.78
2018-08-13T20:29:49.556Z,65.91
2018-08-13T20:34:51.763Z,65.77
2018-08-13T20:39:53.984Z,65.87
2018-08-13T20:44:56.238Z,66.40
2018-08-13T20:49:58.526Z,66.20
2018-08-13T20:55:00.795Z,65.84
2018-08-13T21:00:04.024Z,66.60
2018-08-13T21:05:07.304Z,67.04
2018-08-13T21:10:12.058Z,67.56
2018-08-13T21:15:15.027Z,67.86
2018-08-13T21:20:28.242Z,67.68
2018-08-13T21:25:30.584Z,68.39
2018-08-13T21:30:32.802Z,68.79
2018-08-13T21:35:35.002Z,68.95
2018-08-13T21:40:37.213Z,69.48
2018-08-13T21:45:39.458Z,69.16
2018-08-13T21:50:41.711Z,69.35
2018-08-13T21:55:43.894Z,68.95
2018-08-13T22:00:51.627Z,69.37
2018-08-13T22:05:53.951Z,69.73
2018-08-13T22:10:56.215Z,69.66
2018-08-13T22:15:58.459Z,69.64
2018-08-13T22:21:00.615Z,69.51
2018-08-13T22:26:02.940Z,69.07
2018-08-13T22:31:05.116Z,69.11
2018-08-13T22:36:07.329Z,69.38
2018-08-13T22:41:09.507Z,69.28
2018-08-13T22:46:11.713Z,68.52
2018-08-13T22:51:13.943Z,68.88
2018-08-13T22:56:16.147Z,69.71
2018-08-13T23:01:18.336Z,69.07
2018-08-13T23:06:20.571Z,69.01
2018-08-13T23:11:22.769Z,68.79
2018-08-13T23:16:24.950Z,68.82
2018-08-13T23:21:27.120Z,68.67
2018-08-13T23:26:29.303Z,68.80
2018-08-13T23:31:31.503Z,69.10
2018-08-13T23:36:33.707Z,69.62
2018-08-13T23:41:35.893Z,68.90
2018-08-13T23:46:38.143Z,69.77
2018-08-13T23:51:40.453Z,69.92
2018-08-13T23:56:42.678Z,70.16
